sensor_id;sensor_type;location;lat;lon;timestamp;P1;durP1;ratioP1;P2;durP2;ratioP2
35745;SDS011;21870;42.812;74.628;2023-03-01T00:01:30;6.28;;;2.15;;
35745;SDS011;21870;42.812;74.628;2023-03-01T00:03:56;3.92;;;2.20;;
35745;SDS011;21870;42.812;74.628;2023-03-01T00:06:24;3.90;;;2.35;;
35745;SDS011;21870;42.812;74.628;2023-03-01T00:08:51;8.70;;;3.15;;
35745;SDS011;21870;42.812;74.628;2023-03-01T00:11:21;4.93;;;2.85;;
35745;SDS011;21870;42.812;74.628;2023-03-01T00:13:51;5.30;;;2.53;;
35745;SDS011;21870;42.812;74.628;2023-03-01T00:16:20;4.38;;;2.25;;
35745;SDS011;21870;42.812;74.628;2023-03-01T00:18:51;5.28;;;2.30;;
35745;SDS011;21870;42.812;74.628;2023-03-01T00:21:17;6.68;;;2.17;;
35745;SDS011;21870;42.812;74.628;2023-03-01T00:23:45;5.43;;;2.50;;
35745;SDS011;21870;42.812;74.628;2023-03-01T00:26:12;5.65;;;2.35;;
35745;SDS011;21870;42.812;74.628;2023-03-01T00:28:40;4.32;;;2.45;;
35745;SDS011;21870;42.812;74.628;2023-03-01T00:31:07;3.97;;;2.03;;
35745;SDS011;21870;42.812;74.628;2023-03-01T00:33:35;5.68;;;2.58;;
35745;SDS011;21870;42.812;74.628;2023-03-01T00:36:01;7.05;;;2.47;;
35745;SDS011;21870;42.812;74.628;2023-03-01T00:38:28;5.80;;;2.17;;
35745;SDS011;21870;42.812;74.628;2023-03-01T00:40:54;5.38;;;2.40;;
35745;SDS011;21870;42.812;74.628;2023-03-01T00:43:20;5.40;;;2.92;;
35745;SDS011;21870;42.812;74.628;2023-03-01T00:45:46;8.85;;;4.45;;
35745;SDS011;21870;42.812;74.628;2023-03-01T00:48:12;8.30;;;2.97;;
35745;SDS011;21870;42.812;74.628;2023-03-01T00:50:38;4.50;;;2.40;;
35745;SDS011;21870;42.812;74.628;2023-03-01T00:53:04;6.35;;;2.75;;
35745;SDS011;21870;42.812;74.628;2023-03-01T00:55:30;18.98;;;3.70;;
35745;SDS011;21870;42.812;74.628;2023-03-01T00:57:56;7.93;;;2.80;;
35745;SDS011;21870;42.812;74.628;2023-03-01T01:00:25;9.68;;;3.47;;
35745;SDS011;21870;42.812;74.628;2023-03-01T01:02:52;16.40;;;5.32;;
35745;SDS011;21870;42.812;74.628;2023-03-01T01:05:18;7.13;;;2.83;;
35745;SDS011;21870;42.812;74.628;2023-03-01T01:07:46;4.75;;;2.55;;
35745;SDS011;21870;42.812;74.628;2023-03-01T01:10:13;4.20;;;2.38;;
35745;SDS011;21870;42.812;74.628;2023-03-01T01:12:42;4.45;;;2.22;;
35745;SDS011;21870;42.812;74.628;2023-03-01T01:15:12;5.13;;;2.30;;
35745;SDS011;21870;42.812;74.628;2023-03-01T01:17:39;3.17;;;2.63;;
35745;SDS011;21870;42.812;74.628;2023-03-01T01:20:05;4.55;;;1.85;;
35745;SDS011;21870;42.812;74.628;2023-03-01T01:22:32;8.85;;;2.55;;
35745;SDS011;21870;42.812;74.628;2023-03-01T01:24:58;4.55;;;2.67;;
35745;SDS011;21870;42.812;74.628;2023-03-01T01:27:24;6.25;;;2.80;;
35745;SDS011;21870;42.812;74.628;2023-03-01T01:29:52;4.40;;;2.03;;
35745;SDS011;21870;42.812;74.628;2023-03-01T01:32:18;4.07;;;1.98;;
35745;SDS011;21870;42.812;74.628;2023-03-01T01:34:44;6.65;;;2.00;;
35745;SDS011;21870;42.812;74.628;2023-03-01T01:37:11;4.38;;;2.47;;
35745;SDS011;21870;42.812;74.628;2023-03-01T01:39:37;3.38;;;2.13;;
35745;SDS011;21870;42.812;74.628;2023-03-01T01:42:08;3.10;;;2.35;;
35745;SDS011;21870;42.812;74.628;2023-03-01T01:44:42;5.45;;;2.33;;
35745;SDS011;21870;42.812;74.628;2023-03-01T01:47:15;2.90;;;1.88;;
35745;SDS011;21870;42.812;74.628;2023-03-01T01:49:47;6.07;;;2.17;;
35745;SDS011;21870;42.812;74.628;2023-03-01T01:52:24;4.60;;;1.98;;
35745;SDS011;21870;42.812;74.628;2023-03-01T01:54:54;2.78;;;2.30;;
35745;SDS011;21870;42.812;74.628;2023-03-01T02:00:05;13.27;;;6.22;;
35745;SDS011;21870;42.812;74.628;2023-03-01T02:02:43;35.88;;;18.50;;
35745;SDS011;21870;42.812;74.628;2023-03-01T02:05:24;41.90;;;22.17;;
35745;SDS011;21870;42.812;74.628;2023-03-01T02:07:54;22.50;;;10.85;;
35745;SDS011;21870;42.812;74.628;2023-03-01T02:10:22;14.00;;;3.70;;
35745;SDS011;21870;42.812;74.628;2023-03-01T02:12:49;10.98;;;3.47;;
35745;SDS011;21870;42.812;74.628;2023-03-01T02:15:17;5.55;;;1.67;;
35745;SDS011;21870;42.812;74.628;2023-03-01T02:17:43;5.55;;;1.60;;
35745;SDS011;21870;42.812;74.628;2023-03-01T02:23:13;7.00;;;2.13;;
35745;SDS011;21870;42.812;74.628;2023-03-01T02:28:25;7.63;;;3.40;;
35745;SDS011;21870;42.812;74.628;2023-03-01T02:30:58;20.80;;;4.55;;
35745;SDS011;21870;42.812;74.628;2023-03-01T02:33:44;7.53;;;4.38;;
35745;SDS011;21870;42.812;74.628;2023-03-01T02:36:20;29.02;;;9.98;;
35745;SDS011;21870;42.812;74.628;2023-03-01T02:38:49;25.60;;;6.55;;
35745;SDS011;21870;42.812;74.628;2023-03-01T02:41:21;24.10;;;7.47;;
35745;SDS011;21870;42.812;74.628;2023-03-01T02:43:48;18.67;;;7.28;;
35745;SDS011;21870;42.812;74.628;2023-03-01T02:46:15;20.33;;;8.02;;
35745;SDS011;21870;42.812;74.628;2023-03-01T02:48:48;21.70;;;8.20;;
35745;SDS011;21870;42.812;74.628;2023-03-01T02:51:19;5.10;;;3.40;;
35745;SDS011;21870;42.812;74.628;2023-03-01T02:53:59;5.72;;;3.08;;
35745;SDS011;21870;42.812;74.628;2023-03-01T02:56:43;15.45;;;7.63;;
35745;SDS011;21870;42.812;74.628;2023-03-01T02:59:14;19.52;;;9.88;;
35745;SDS011;21870;42.812;74.628;2023-03-01T03:01:43;37.47;;;16.80;;
35745;SDS011;21870;42.812;74.628;2023-03-01T03:04:11;42.80;;;20.00;;
35745;SDS011;21870;42.812;74.628;2023-03-01T03:06:44;44.30;;;19.55;;
35745;SDS011;21870;42.812;74.628;2023-03-01T03:09:10;42.20;;;19.45;;
35745;SDS011;21870;42.812;74.628;2023-03-01T03:11:38;42.95;;;21.92;;
35745;SDS011;21870;42.812;74.628;2023-03-01T03:14:06;48.17;;;22.77;;
35745;SDS011;21870;42.812;74.628;2023-03-01T03:16:43;43.22;;;21.15;;
35745;SDS011;21870;42.812;74.628;2023-03-01T03:19:11;39.05;;;18.38;;
35745;SDS011;21870;42.812;74.628;2023-03-01T03:21:37;47.10;;;21.40;;
35745;SDS011;21870;42.812;74.628;2023-03-01T03:24:03;43.22;;;18.45;;
35745;SDS011;21870;42.812;74.628;2023-03-01T03:26:30;35.92;;;14.50;;
35745;SDS011;21870;42.812;74.628;2023-03-01T03:28:57;25.95;;;12.13;;
35745;SDS011;21870;42.812;74.628;2023-03-01T03:31:23;38.47;;;14.25;;
35745;SDS011;21870;42.812;74.628;2023-03-01T03:33:49;28.08;;;12.88;;
35745;SDS011;21870;42.812;74.628;2023-03-01T03:36:19;35.85;;;12.93;;
35745;SDS011;21870;42.812;74.628;2023-03-01T03:38:47;24.75;;;11.90;;
35745;SDS011;21870;42.812;74.628;2023-03-01T03:41:14;30.27;;;11.38;;
35745;SDS011;21870;42.812;74.628;2023-03-01T03:43:40;29.80;;;8.10;;
35745;SDS011;21870;42.812;74.628;2023-03-01T03:46:09;20.38;;;8.65;;
35745;SDS011;21870;42.812;74.628;2023-03-01T03:48:37;21.13;;;8.18;;
35745;SDS011;21870;42.812;74.628;2023-03-01T03:51:10;31.65;;;6.72;;
35745;SDS011;21870;42.812;74.628;2023-03-01T03:53:41;21.52;;;6.80;;
35745;SDS011;21870;42.812;74.628;2023-03-01T03:56:07;12.80;;;5.75;;
35745;SDS011;21870;42.812;74.628;2023-03-01T03:58:34;11.15;;;5.25;;
35745;SDS011;21870;42.812;74.628;2023-03-01T04:01:00;15.52;;;5.80;;
35745;SDS011;21870;42.812;74.628;2023-03-01T04:03:27;17.30;;;6.78;;
35745;SDS011;21870;42.812;74.628;2023-03-01T04:05:56;16.65;;;7.32;;
35745;SDS011;21870;42.812;74.628;2023-03-01T04:08:23;16.73;;;6.63;;
35745;SDS011;21870;42.812;74.628;2023-03-01T04:10:51;9.25;;;4.95;;
35745;SDS011;21870;42.812;74.628;2023-03-01T04:13:20;12.07;;;6.38;;
35745;SDS011;21870;42.812;74.628;2023-03-01T04:15:54;14.48;;;5.70;;
35745;SDS011;21870;42.812;74.628;2023-03-01T04:18:21;10.25;;;5.60;;
35745;SDS011;21870;42.812;74.628;2023-03-01T04:20:48;19.13;;;5.68;;
35745;SDS011;21870;42.812;74.628;2023-03-01T04:23:17;13.85;;;5.90;;
35745;SDS011;21870;42.812;74.628;2023-03-01T04:28:29;10.98;;;4.40;;
35745;SDS011;21870;42.812;74.628;2023-03-01T04:31:02;13.15;;;5.10;;
35745;SDS011;21870;42.812;74.628;2023-03-01T04:33:39;13.23;;;4.57;;
35745;SDS011;21870;42.812;74.628;2023-03-01T04:36:06;17.20;;;4.65;;
35745;SDS011;21870;42.812;74.628;2023-03-01T04:38:34;10.30;;;5.32;;
35745;SDS011;21870;42.812;74.628;2023-03-01T04:41:03;18.35;;;5.70;;
35745;SDS011;21870;42.812;74.628;2023-03-01T04:43:33;21.67;;;4.80;;
35745;SDS011;21870;42.812;74.628;2023-03-01T04:46:00;18.65;;;4.57;;
35745;SDS011;21870;42.812;74.628;2023-03-01T04:48:28;8.93;;;3.53;;
35745;SDS011;21870;42.812;74.628;2023-03-01T04:50:54;9.57;;;3.53;;
35745;SDS011;21870;42.812;74.628;2023-03-01T04:53:20;7.55;;;3.38;;
35745;SDS011;21870;42.812;74.628;2023-03-01T04:55:46;10.82;;;3.97;;
35745;SDS011;21870;42.812;74.628;2023-03-01T04:58:13;16.42;;;3.65;;
35745;SDS011;21870;42.812;74.628;2023-03-01T05:00:39;7.90;;;3.47;;
35745;SDS011;21870;42.812;74.628;2023-03-01T05:03:05;11.32;;;5.07;;
35745;SDS011;21870;42.812;74.628;2023-03-01T05:05:32;10.80;;;6.20;;
35745;SDS011;21870;42.812;74.628;2023-03-01T05:08:01;12.15;;;5.05;;
35745;SDS011;21870;42.812;74.628;2023-03-01T05:10:29;14.32;;;5.30;;
35745;SDS011;21870;42.812;74.628;2023-03-01T05:12:57;12.57;;;5.07;;
35745;SDS011;21870;42.812;74.628;2023-03-01T05:15:25;13.93;;;4.57;;
35745;SDS011;21870;42.812;74.628;2023-03-01T05:17:53;10.98;;;5.20;;
35745;SDS011;21870;42.812;74.628;2023-03-01T05:20:21;14.40;;;6.70;;
35745;SDS011;21870;42.812;74.628;2023-03-01T05:22:50;9.73;;;4.18;;
35745;SDS011;21870;42.812;74.628;2023-03-01T05:25:17;8.70;;;3.95;;
35745;SDS011;21870;42.812;74.628;2023-03-01T05:27:44;9.88;;;3.55;;
35745;SDS011;21870;42.812;74.628;2023-03-01T05:30:10;12.88;;;4.25;;
35745;SDS011;21870;42.812;74.628;2023-03-01T05:32:43;10.43;;;3.92;;
35745;SDS011;21870;42.812;74.628;2023-03-01T05:35:12;13.57;;;4.28;;
35745;SDS011;21870;42.812;74.628;2023-03-01T05:37:40;10.70;;;4.35;;
35745;SDS011;21870;42.812;74.628;2023-03-01T05:40:08;15.20;;;4.63;;
35745;SDS011;21870;42.812;74.628;2023-03-01T05:43:01;18.40;;;7.90;;
35745;SDS011;21870;42.812;74.628;2023-03-01T05:45:30;15.07;;;6.28;;
35745;SDS011;21870;42.812;74.628;2023-03-01T05:48:00;15.45;;;6.40;;
35745;SDS011;21870;42.812;74.628;2023-03-01T05:50:27;16.88;;;6.45;;
35745;SDS011;21870;42.812;74.628;2023-03-01T05:53:01;11.68;;;6.20;;
35745;SDS011;21870;42.812;74.628;2023-03-01T05:55:27;11.82;;;5.32;;
35745;SDS011;21870;42.812;74.628;2023-03-01T05:57:59;18.10;;;6.88;;
35745;SDS011;21870;42.812;74.628;2023-03-01T06:00:29;9.82;;;5.13;;
35745;SDS011;21870;42.812;74.628;2023-03-01T06:02:56;11.63;;;5.70;;
35745;SDS011;21870;42.812;74.628;2023-03-01T06:05:23;10.77;;;5.78;;
35745;SDS011;21870;42.812;74.628;2023-03-01T06:07:50;11.85;;;5.65;;
35745;SDS011;21870;42.812;74.628;2023-03-01T06:10:17;10.27;;;5.20;;
35745;SDS011;21870;42.812;74.628;2023-03-01T06:12:44;12.13;;;4.80;;
35745;SDS011;21870;42.812;74.628;2023-03-01T06:15:11;8.68;;;4.50;;
35745;SDS011;21870;42.812;74.628;2023-03-01T06:17:39;12.15;;;5.38;;
35745;SDS011;21870;42.812;74.628;2023-03-01T06:20:11;7.57;;;4.22;;
35745;SDS011;21870;42.812;74.628;2023-03-01T06:22:48;6.18;;;3.72;;
35745;SDS011;21870;42.812;74.628;2023-03-01T06:25:15;6.35;;;4.10;;
35745;SDS011;21870;42.812;74.628;2023-03-01T06:27:43;8.82;;;3.60;;
35745;SDS011;21870;42.812;74.628;2023-03-01T06:30:11;4.93;;;2.92;;
35745;SDS011;21870;42.812;74.628;2023-03-01T06:32:39;9.10;;;3.17;;
35745;SDS011;21870;42.812;74.628;2023-03-01T06:35:12;4.43;;;2.92;;
35745;SDS011;21870;42.812;74.628;2023-03-01T06:37:42;5.30;;;2.75;;
35745;SDS011;21870;42.812;74.628;2023-03-01T06:40:09;6.70;;;3.28;;
35745;SDS011;21870;42.812;74.628;2023-03-01T06:42:37;9.23;;;3.67;;
35745;SDS011;21870;42.812;74.628;2023-03-01T06:45:05;7.97;;;3.90;;
35745;SDS011;21870;42.812;74.628;2023-03-01T06:47:32;7.22;;;3.33;;
35745;SDS011;21870;42.812;74.628;2023-03-01T06:49:59;12.70;;;4.15;;
35745;SDS011;21870;42.812;74.628;2023-03-01T06:52:26;6.28;;;3.35;;
35745;SDS011;21870;42.812;74.628;2023-03-01T06:54:52;8.65;;;3.47;;
35745;SDS011;21870;42.812;74.628;2023-03-01T06:57:18;7.03;;;2.88;;
35745;SDS011;21870;42.812;74.628;2023-03-01T06:59:44;8.50;;;3.10;;
35745;SDS011;21870;42.812;74.628;2023-03-01T07:02:12;7.80;;;3.40;;
35745;SDS011;21870;42.812;74.628;2023-03-01T07:04:40;9.73;;;4.00;;
35745;SDS011;21870;42.812;74.628;2023-03-01T07:07:07;10.90;;;4.10;;
35745;SDS011;21870;42.812;74.628;2023-03-01T07:09:33;10.93;;;3.45;;
35745;SDS011;21870;42.812;74.628;2023-03-01T07:11:59;23.10;;;5.95;;
35745;SDS011;21870;42.812;74.628;2023-03-01T07:14:25;7.45;;;2.17;;
35745;SDS011;21870;42.812;74.628;2023-03-01T07:16:52;20.45;;;4.13;;
35745;SDS011;21870;42.812;74.628;2023-03-01T07:19:18;11.82;;;3.28;;
35745;SDS011;21870;42.812;74.628;2023-03-01T07:21:45;9.07;;;3.38;;
35745;SDS011;21870;42.812;74.628;2023-03-01T07:24:12;12.18;;;3.22;;
35745;SDS011;21870;42.812;74.628;2023-03-01T07:26:38;7.38;;;3.05;;
35745;SDS011;21870;42.812;74.628;2023-03-01T07:29:05;20.75;;;4.63;;
35745;SDS011;21870;42.812;74.628;2023-03-01T07:31:32;22.65;;;5.90;;
35745;SDS011;21870;42.812;74.628;2023-03-01T07:33:59;18.38;;;6.93;;
35745;SDS011;21870;42.812;74.628;2023-03-01T07:36:26;17.40;;;6.88;;
35745;SDS011;21870;42.812;74.628;2023-03-01T07:38:52;20.23;;;7.15;;
35745;SDS011;21870;42.812;74.628;2023-03-01T07:41:20;39.25;;;9.52;;
35745;SDS011;21870;42.812;74.628;2023-03-01T07:43:47;20.52;;;9.30;;
35745;SDS011;21870;42.812;74.628;2023-03-01T07:46:13;14.27;;;7.38;;
35745;SDS011;21870;42.812;74.628;2023-03-01T07:48:39;23.83;;;9.25;;
35745;SDS011;21870;42.812;74.628;2023-03-01T07:51:05;19.13;;;8.85;;
35745;SDS011;21870;42.812;74.628;2023-03-01T07:53:32;22.52;;;9.25;;
35745;SDS011;21870;42.812;74.628;2023-03-01T07:58:31;25.98;;;9.40;;
35745;SDS011;21870;42.812;74.628;2023-03-01T08:01:05;19.83;;;9.82;;
35745;SDS011;21870;42.812;74.628;2023-03-01T08:03:33;17.33;;;9.75;;
35745;SDS011;21870;42.812;74.628;2023-03-01T08:06:00;16.67;;;9.45;;
35745;SDS011;21870;42.812;74.628;2023-03-01T08:08:30;28.92;;;11.18;;
35745;SDS011;21870;42.812;74.628;2023-03-01T08:10:57;18.92;;;10.10;;
35745;SDS011;21870;42.812;74.628;2023-03-01T08:13:24;21.98;;;11.48;;
35745;SDS011;21870;42.812;74.628;2023-03-01T08:15:52;22.08;;;12.63;;
35745;SDS011;21870;42.812;74.628;2023-03-01T08:18:19;25.38;;;13.90;;
35745;SDS011;21870;42.812;74.628;2023-03-01T08:20:46;25.77;;;14.02;;
35745;SDS011;21870;42.812;74.628;2023-03-01T08:23:12;31.38;;;14.35;;
35745;SDS011;21870;42.812;74.628;2023-03-01T08:25:39;35.50;;;15.55;;
35745;SDS011;21870;42.812;74.628;2023-03-01T08:28:05;23.05;;;15.15;;
35745;SDS011;21870;42.812;74.628;2023-03-01T08:30:31;24.65;;;15.60;;
35745;SDS011;21870;42.812;74.628;2023-03-01T08:32:57;26.25;;;14.65;;
35745;SDS011;21870;42.812;74.628;2023-03-01T08:35:23;23.05;;;12.68;;
35745;SDS011;21870;42.812;74.628;2023-03-01T08:37:49;26.67;;;14.43;;
35745;SDS011;21870;42.812;74.628;2023-03-01T08:40:15;25.40;;;12.57;;
35745;SDS011;21870;42.812;74.628;2023-03-01T08:42:42;23.10;;;14.75;;
35745;SDS011;21870;42.812;74.628;2023-03-01T08:45:09;22.38;;;13.95;;
35745;SDS011;21870;42.812;74.628;2023-03-01T08:47:36;27.38;;;14.55;;
35745;SDS011;21870;42.812;74.628;2023-03-01T08:50:02;24.38;;;14.23;;
35745;SDS011;21870;42.812;74.628;2023-03-01T08:52:29;20.92;;;14.38;;
35745;SDS011;21870;42.812;74.628;2023-03-01T08:54:57;33.50;;;14.85;;
35745;SDS011;21870;42.812;74.628;2023-03-01T08:57:23;26.98;;;13.70;;
35745;SDS011;21870;42.812;74.628;2023-03-01T08:59:49;24.38;;;12.77;;
35745;SDS011;21870;42.812;74.628;2023-03-01T09:02:16;20.92;;;11.68;;
35745;SDS011;21870;42.812;74.628;2023-03-01T09:04:43;23.33;;;11.55;;
35745;SDS011;21870;42.812;74.628;2023-03-01T09:07:10;31.17;;;13.30;;
35745;SDS011;21870;42.812;74.628;2023-03-01T09:09:36;17.25;;;11.07;;
35745;SDS011;21870;42.812;74.628;2023-03-01T09:12:03;17.50;;;11.30;;
35745;SDS011;21870;42.812;74.628;2023-03-01T09:14:29;17.52;;;9.35;;
35745;SDS011;21870;42.812;74.628;2023-03-01T09:16:55;24.30;;;10.23;;
35745;SDS011;21870;42.812;74.628;2023-03-01T09:19:21;19.13;;;9.60;;
35745;SDS011;21870;42.812;74.628;2023-03-01T09:21:47;19.48;;;10.77;;
35745;SDS011;21870;42.812;74.628;2023-03-01T09:24:21;20.17;;;9.77;;
35745;SDS011;21870;42.812;74.628;2023-03-01T09:26:49;19.15;;;9.45;;
35745;SDS011;21870;42.812;74.628;2023-03-01T09:29:18;20.13;;;8.98;;
35745;SDS011;21870;42.812;74.628;2023-03-01T09:31:44;25.83;;;9.70;;
35745;SDS011;21870;42.812;74.628;2023-03-01T09:34:13;26.10;;;11.02;;
35745;SDS011;21870;42.812;74.628;2023-03-01T09:36:41;21.30;;;9.70;;
35745;SDS011;21870;42.812;74.628;2023-03-01T09:39:07;25.30;;;10.13;;
35745;SDS011;21870;42.812;74.628;2023-03-01T09:47:05;23.85;;;9.25;;
35745;SDS011;21870;42.812;74.628;2023-03-01T09:49:41;13.80;;;9.32;;
35745;SDS011;21870;42.812;74.628;2023-03-01T09:54:46;21.13;;;9.30;;
35745;SDS011;21870;42.812;74.628;2023-03-01T09:57:33;20.90;;;9.68;;
35745;SDS011;21870;42.812;74.628;2023-03-01T10:03:01;19.65;;;9.45;;
35745;SDS011;21870;42.812;74.628;2023-03-01T10:05:34;22.73;;;10.05;;
35745;SDS011;21870;42.812;74.628;2023-03-01T10:10:43;20.10;;;10.10;;
35745;SDS011;21870;42.812;74.628;2023-03-01T10:13:19;16.63;;;8.23;;
35745;SDS011;21870;42.812;74.628;2023-03-01T10:16:01;17.63;;;7.82;;
35745;SDS011;21870;42.812;74.628;2023-03-01T10:18:39;14.25;;;7.63;;
35745;SDS011;21870;42.812;74.628;2023-03-01T10:21:14;14.68;;;8.95;;
35745;SDS011;21870;42.812;74.628;2023-03-01T10:23:42;18.25;;;8.02;;
35745;SDS011;21870;42.812;74.628;2023-03-01T10:31:13;17.92;;;8.70;;
35745;SDS011;21870;42.812;74.628;2023-03-01T10:33:43;17.15;;;9.10;;
35745;SDS011;21870;42.812;74.628;2023-03-01T10:36:10;17.38;;;9.32;;
35745;SDS011;21870;42.812;74.628;2023-03-01T10:41:22;18.00;;;10.02;;
35745;SDS011;21870;42.812;74.628;2023-03-01T10:43:51;21.15;;;9.75;;
35745;SDS011;21870;42.812;74.628;2023-03-01T10:51:31;19.70;;;9.15;;
35745;SDS011;21870;42.812;74.628;2023-03-01T10:53:59;35.28;;;12.77;;
35745;SDS011;21870;42.812;74.628;2023-03-01T10:56:27;17.25;;;9.38;;
35745;SDS011;21870;42.812;74.628;2023-03-01T10:59:00;17.33;;;9.95;;
35745;SDS011;21870;42.812;74.628;2023-03-01T11:01:32;30.30;;;10.25;;
35745;SDS011;21870;42.812;74.628;2023-03-01T11:04:12;27.92;;;11.25;;
35745;SDS011;21870;42.812;74.628;2023-03-01T11:06:39;24.80;;;9.65;;
35745;SDS011;21870;42.812;74.628;2023-03-01T11:09:14;35.95;;;11.43;;
35745;SDS011;21870;42.812;74.628;2023-03-01T11:11:40;15.85;;;9.40;;
35745;SDS011;21870;42.812;74.628;2023-03-01T11:14:17;21.45;;;10.50;;
35745;SDS011;21870;42.812;74.628;2023-03-01T11:16:47;24.85;;;10.50;;
35745;SDS011;21870;42.812;74.628;2023-03-01T11:19:22;24.38;;;11.50;;
35745;SDS011;21870;42.812;74.628;2023-03-01T11:24:52;20.27;;;10.27;;
35745;SDS011;21870;42.812;74.628;2023-03-01T11:27:34;19.60;;;9.60;;
35745;SDS011;21870;42.812;74.628;2023-03-01T11:35:36;36.30;;;10.25;;
35745;SDS011;21870;42.812;74.628;2023-03-01T11:40:53;25.00;;;9.43;;
35745;SDS011;21870;42.812;74.628;2023-03-01T11:51:42;24.20;;;9.90;;
35745;SDS011;21870;42.812;74.628;2023-03-01T11:57:27;25.98;;;10.38;;
35745;SDS011;21870;42.812;74.628;2023-03-01T12:07:52;20.15;;;8.70;;
35745;SDS011;21870;42.812;74.628;2023-03-01T12:10:42;20.83;;;8.77;;
35745;SDS011;21870;42.812;74.628;2023-03-01T12:21:48;18.48;;;8.38;;
35745;SDS011;21870;42.812;74.628;2023-03-01T12:24:26;19.00;;;10.38;;
35745;SDS011;21870;42.812;74.628;2023-03-01T12:40:41;107.72;;;23.45;;
35745;SDS011;21870;42.812;74.628;2023-03-01T12:48:46;51.67;;;19.85;;
35745;SDS011;21870;42.812;74.628;2023-03-01T12:51:17;32.55;;;17.08;;
35745;SDS011;21870;42.812;74.628;2023-03-01T12:53:48;41.05;;;17.73;;
35745;SDS011;21870;42.812;74.628;2023-03-01T12:56:22;43.35;;;16.15;;
35745;SDS011;21870;42.812;74.628;2023-03-01T13:01:56;67.95;;;20.70;;
35745;SDS011;21870;42.812;74.628;2023-03-01T13:09:42;50.60;;;20.77;;
35745;SDS011;21870;42.812;74.628;2023-03-01T13:17:51;55.47;;;19.60;;
35745;SDS011;21870;42.812;74.628;2023-03-01T13:20:20;49.63;;;20.35;;
35745;SDS011;21870;42.812;74.628;2023-03-01T13:23:00;37.42;;;20.15;;
35745;SDS011;21870;42.812;74.628;2023-03-01T13:25:31;68.10;;;25.08;;
35745;SDS011;21870;42.812;74.628;2023-03-01T13:31:01;58.50;;;25.10;;
35745;SDS011;21870;42.812;74.628;2023-03-01T13:36:01;48.97;;;24.77;;
35745;SDS011;21870;42.812;74.628;2023-03-01T13:46:52;30.92;;;18.20;;
35745;SDS011;21870;42.812;74.628;2023-03-01T13:49:23;30.20;;;17.42;;
35745;SDS011;21870;42.812;74.628;2023-03-01T13:51:52;26.08;;;15.77;;
35745;SDS011;21870;42.812;74.628;2023-03-01T13:54:26;25.63;;;16.25;;
35745;SDS011;21870;42.812;74.628;2023-03-01T13:56:57;21.85;;;15.35;;
35745;SDS011;21870;42.812;74.628;2023-03-01T13:59:25;30.33;;;14.88;;
35745;SDS011;21870;42.812;74.628;2023-03-01T14:01:56;26.45;;;14.75;;
35745;SDS011;21870;42.812;74.628;2023-03-01T14:04:28;24.95;;;12.77;;
35745;SDS011;21870;42.812;74.628;2023-03-01T14:07:13;24.98;;;13.82;;
35745;SDS011;21870;42.812;74.628;2023-03-01T14:09:54;84.75;;;48.33;;
35745;SDS011;21870;42.812;74.628;2023-03-01T14:20:32;10.60;;;7.88;;
35745;SDS011;21870;42.812;74.628;2023-03-01T14:23:09;18.30;;;10.80;;
35745;SDS011;21870;42.812;74.628;2023-03-01T14:25:38;24.58;;;12.93;;
35745;SDS011;21870;42.812;74.628;2023-03-01T14:28:21;22.73;;;14.70;;
35745;SDS011;21870;42.812;74.628;2023-03-01T14:30:56;23.77;;;14.68;;
35745;SDS011;21870;42.812;74.628;2023-03-01T14:33:28;22.27;;;15.18;;
35745;SDS011;21870;42.812;74.628;2023-03-01T14:36:00;25.88;;;16.73;;
35745;SDS011;21870;42.812;74.628;2023-03-01T14:41:08;28.33;;;17.80;;
35745;SDS011;21870;42.812;74.628;2023-03-01T14:43:38;29.42;;;17.50;;
35745;SDS011;21870;42.812;74.628;2023-03-01T14:46:21;31.05;;;18.33;;
35745;SDS011;21870;42.812;74.628;2023-03-01T14:49:02;33.53;;;18.98;;
35745;SDS011;21870;42.812;74.628;2023-03-01T14:51:40;25.65;;;18.42;;
35745;SDS011;21870;42.812;74.628;2023-03-01T14:54:18;25.55;;;19.00;;
35745;SDS011;21870;42.812;74.628;2023-03-01T14:56:54;25.13;;;17.67;;
35745;SDS011;21870;42.812;74.628;2023-03-01T14:59:25;25.83;;;20.20;;
35745;SDS011;21870;42.812;74.628;2023-03-01T15:01:51;26.90;;;18.02;;
35745;SDS011;21870;42.812;74.628;2023-03-01T15:04:20;25.77;;;17.10;;
35745;SDS011;21870;42.812;74.628;2023-03-01T15:06:49;25.42;;;18.38;;
35745;SDS011;21870;42.812;74.628;2023-03-01T15:09:17;24.90;;;17.23;;
35745;SDS011;21870;42.812;74.628;2023-03-01T15:11:44;25.30;;;16.13;;
35745;SDS011;21870;42.812;74.628;2023-03-01T15:14:39;22.55;;;15.52;;
35745;SDS011;21870;42.812;74.628;2023-03-01T15:20:03;19.80;;;13.70;;
35745;SDS011;21870;42.812;74.628;2023-03-01T15:22:32;16.80;;;11.65;;
35745;SDS011;21870;42.812;74.628;2023-03-01T15:24:58;16.48;;;12.35;;
35745;SDS011;21870;42.812;74.628;2023-03-01T15:27:25;18.02;;;11.93;;
35745;SDS011;21870;42.812;74.628;2023-03-01T15:29:53;19.10;;;10.77;;
35745;SDS011;21870;42.812;74.628;2023-03-01T15:34:50;23.05;;;11.73;;
35745;SDS011;21870;42.812;74.628;2023-03-01T15:40:25;16.33;;;9.45;;
35745;SDS011;21870;42.812;74.628;2023-03-01T15:43:02;15.13;;;9.25;;
35745;SDS011;21870;42.812;74.628;2023-03-01T15:45:31;18.00;;;8.98;;
35745;SDS011;21870;42.812;74.628;2023-03-01T15:48:04;14.48;;;8.68;;
35745;SDS011;21870;42.812;74.628;2023-03-01T15:50:43;19.42;;;9.77;;
35745;SDS011;21870;42.812;74.628;2023-03-01T15:53:19;14.93;;;10.63;;
35745;SDS011;21870;42.812;74.628;2023-03-01T15:55:45;17.48;;;11.32;;
35745;SDS011;21870;42.812;74.628;2023-03-01T15:58:18;22.63;;;10.93;;
35745;SDS011;21870;42.812;74.628;2023-03-01T16:00:47;14.90;;;10.85;;
35745;SDS011;21870;42.812;74.628;2023-03-01T16:03:16;17.85;;;10.98;;
35745;SDS011;21870;42.812;74.628;2023-03-01T16:05:46;21.63;;;11.13;;
35745;SDS011;21870;42.812;74.628;2023-03-01T16:08:16;20.42;;;10.68;;
35745;SDS011;21870;42.812;74.628;2023-03-01T16:10:43;23.80;;;11.52;;
35745;SDS011;21870;42.812;74.628;2023-03-01T16:13:11;19.42;;;10.93;;
35745;SDS011;21870;42.812;74.628;2023-03-01T16:15:38;24.23;;;11.63;;
35745;SDS011;21870;42.812;74.628;2023-03-01T16:18:05;17.40;;;10.90;;
35745;SDS011;21870;42.812;74.628;2023-03-01T16:20:33;14.48;;;10.20;;
35745;SDS011;21870;42.812;74.628;2023-03-01T16:23:00;15.20;;;7.95;;
35745;SDS011;21870;42.812;74.628;2023-03-01T16:25:29;12.18;;;8.50;;
35745;SDS011;21870;42.812;74.628;2023-03-01T16:27:55;22.02;;;9.55;;
35745;SDS011;21870;42.812;74.628;2023-03-01T16:30:23;14.65;;;8.75;;
35745;SDS011;21870;42.812;74.628;2023-03-01T16:32:49;19.40;;;10.05;;
35745;SDS011;21870;42.812;74.628;2023-03-01T16:35:16;17.05;;;8.57;;
35745;SDS011;21870;42.812;74.628;2023-03-01T16:37:45;14.95;;;8.60;;
35745;SDS011;21870;42.812;74.628;2023-03-01T16:40:19;11.57;;;7.00;;
35745;SDS011;21870;42.812;74.628;2023-03-01T16:42:51;16.17;;;9.60;;
35745;SDS011;21870;42.812;74.628;2023-03-01T16:45:18;12.52;;;7.15;;
35745;SDS011;21870;42.812;74.628;2023-03-01T16:47:44;10.52;;;7.30;;
35745;SDS011;21870;42.812;74.628;2023-03-01T16:50:11;16.75;;;7.43;;
35745;SDS011;21870;42.812;74.628;2023-03-01T16:52:37;12.25;;;6.68;;
35745;SDS011;21870;42.812;74.628;2023-03-01T16:55:04;12.82;;;6.82;;
35745;SDS011;21870;42.812;74.628;2023-03-01T16:57:33;10.15;;;7.25;;
35745;SDS011;21870;42.812;74.628;2023-03-01T16:59:59;16.00;;;7.78;;